createdAt,value
2022-11-14T00:01:12.876Z,7.05
2022-11-14T00:03:42.071Z,7.17
2022-11-14T00:06:09.069Z,7.26
2022-11-14T00:08:36.217Z,7.33
2022-11-14T00:11:03.261Z,7.34
2022-11-14T00:13:29.805Z,7.35
2022-11-14T00:15:56.511Z,7.38
2022-11-14T00:18:23.696Z,7.42
2022-11-14T00:20:52.184Z,7.41
2022-11-14T00:23:19.920Z,7.49
2022-11-14T00:25:46.987Z,7.39
2022-11-14T00:28:13.536Z,7.36
2022-11-14T00:30:40.286Z,7.30
2022-11-14T00:33:06.810Z,7.31
2022-11-14T00:35:33.363Z,7.33
2022-11-14T00:37:59.873Z,7.31
2022-11-14T00:40:28.928Z,7.40
2022-11-14T00:42:55.436Z,7.44
2022-11-14T00:45:22.067Z,7.38
2022-11-14T00:47:48.709Z,7.33
2022-11-14T00:50:17.081Z,7.31
2022-11-14T00:52:46.101Z,7.32
2022-11-14T00:55:12.656Z,7.33
2022-11-14T00:57:39.231Z,7.25
2022-11-14T01:00:07.008Z,7.35
2022-11-14T01:02:33.813Z,7.44
2022-11-14T01:05:02.897Z,7.41
2022-11-14T01:07:29.550Z,7.52
2022-11-14T01:09:56.202Z,7.56
2022-11-14T01:12:22.720Z,7.49
2022-11-14T01:14:49.283Z,7.48
2022-11-14T01:17:15.866Z,7.39
2022-11-14T01:19:42.384Z,7.31
2022-11-14T01:22:09.301Z,7.25
2022-11-14T01:24:35.873Z,7.34
2022-11-14T01:27:02.564Z,7.28
2022-11-14T01:29:29.158Z,7.04
2022-11-14T01:31:56.103Z,6.82
2022-11-14T01:34:23.274Z,6.74
2022-11-14T01:36:49.807Z,6.67
2022-11-14T01:39:16.388Z,6.64
2022-11-14T01:41:42.925Z,6.66
2022-11-14T01:44:17.435Z,6.47
2022-11-14T01:46:50.426Z,6.35
2022-11-14T01:49:26.043Z,6.41
2022-11-14T01:52:03.542Z,6.49
2022-11-14T01:54:34.811Z,6.45
2022-11-14T01:57:03.077Z,6.44
2022-11-14T01:59:34.567Z,6.25
2022-11-14T02:02:07.086Z,6.23
2022-11-14T02:04:39.723Z,6.30
2022-11-14T02:07:07.408Z,6.15
2022-11-14T02:09:41.058Z,6.17
2022-11-14T02:12:10.159Z,6.06
2022-11-14T02:14:38.029Z,6.01
2022-11-14T02:17:28.582Z,5.91
2022-11-14T02:20:05.770Z,5.63
2022-11-14T02:22:32.821Z,5.84
2022-11-14T02:24:59.375Z,5.78
2022-11-14T02:27:26.445Z,5.71
2022-11-14T02:29:52.961Z,5.65
2022-11-14T02:32:19.592Z,5.83
2022-11-14T02:34:46.106Z,5.82
2022-11-14T02:37:12.625Z,5.64
2022-11-14T02:39:39.345Z,5.47
2022-11-14T02:42:05.956Z,5.48
2022-11-14T02:44:32.611Z,5.43
2022-11-14T02:47:02.152Z,5.48
2022-11-14T02:49:28.674Z,5.39
2022-11-14T02:51:55.151Z,5.41
2022-11-14T02:54:21.698Z,5.77
2022-11-14T02:56:48.215Z,5.77
2022-11-14T02:59:14.716Z,5.72
2022-11-14T03:01:43.574Z,5.87
2022-11-14T03:04:10.112Z,5.75
2022-11-14T03:06:36.853Z,5.73
2022-11-14T03:09:03.623Z,5.73
2022-11-14T03:11:31.210Z,5.84
2022-11-14T03:13:59.568Z,5.97
2022-11-14T03:16:26.271Z,5.96
2022-11-14T03:18:53.317Z,5.92
2022-11-14T03:21:22.015Z,6.04
2022-11-14T03:23:48.811Z,5.86
2022-11-14T03:26:16.429Z,5.73
2022-11-14T03:28:43.149Z,5.72
2022-11-14T03:31:13.322Z,5.68
2022-11-14T03:33:40.268Z,5.52
2022-11-14T03:36:07.775Z,5.41
2022-11-14T03:38:35.709Z,5.56
2022-11-14T03:41:02.259Z,5.46
2022-11-14T03:43:34.917Z,5.66
2022-11-14T03:46:02.747Z,5.42
2022-11-14T03:48:29.957Z,5.24
2022-11-14T03:50:57.160Z,5.13
2022-11-14T03:53:24.142Z,5.22
2022-11-14T03:55:53.150Z,4.99
2022-11-14T03:58:19.801Z,4.76
2022-11-14T04:00:46.546Z,4.84
2022-11-14T04:03:13.277Z,5.22
2022-11-14T04:05:39.971Z,5.14
2022-11-14T04:08:07.249Z,5.11
2022-11-14T04:10:33.932Z,4.92
2022-11-14T04:13:00.491Z,4.87
2022-11-14T04:15:27.009Z,4.84
2022-11-14T04:17:56.014Z,4.73
2022-11-14T04:20:22.545Z,4.88
2022-11-14T04:22:51.280Z,4.79
2022-11-14T04:25:17.939Z,4.62
2022-11-14T04:27:44.477Z,4.48
2022-11-14T04:30:11.612Z,4.60
2022-11-14T04:32:38.164Z,4.47
2022-11-14T04:35:05.102Z,4.32
2022-11-14T04:37:31.959Z,4.21
2022-11-14T04:40:01.045Z,4.25
2022-11-14T04:42:28.391Z,4.15
2022-11-14T04:44:55.385Z,4.06
2022-11-14T04:47:22.140Z,4.14
2022-11-14T04:49:48.887Z,4.19
2022-11-14T04:52:16.013Z,4.18
2022-11-14T04:54:42.743Z,4.15
2022-11-14T04:57:09.644Z,4.07
2022-11-14T04:59:36.475Z,3.90
2022-11-14T05:02:05.681Z,3.82
2022-11-14T05:04:32.565Z,4.06
2022-11-14T05:06:59.430Z,4.18
2022-11-14T05:09:26.217Z,4.16
2022-11-14T05:11:52.905Z,4.12
2022-11-14T05:14:19.610Z,3.95
2022-11-14T05:16:46.454Z,3.78
2022-11-14T05:19:13.207Z,3.83
2022-11-14T05:21:42.065Z,3.80
2022-11-14T05:24:09.098Z,3.79
2022-11-14T05:26:35.761Z,3.71
2022-11-14T05:29:02.369Z,3.70
2022-11-14T05:31:29.195Z,3.58
2022-11-14T05:33:58.381Z,3.56
2022-11-14T05:36:25.117Z,3.60
2022-11-14T05:38:52.235Z,3.56
2022-11-14T05:41:22.376Z,3.67
2022-11-14T05:43:49.029Z,3.65
2022-11-14T05:46:16.841Z,3.61
2022-11-14T05:48:43.857Z,3.57
2022-11-14T05:51:15.176Z,3.70
2022-11-14T05:53:44.091Z,3.79
2022-11-14T05:56:13.028Z,3.74
2022-11-14T05:58:40.182Z,3.85
2022-11-14T06:01:08.465Z,3.88
2022-11-14T06:03:37.295Z,3.91
2022-11-14T06:06:09.285Z,3.86
2022-11-14T06:08:36.760Z,3.95
2022-11-14T06:11:05.567Z,3.83
2022-11-14T06:13:32.780Z,3.67
2022-11-14T06:16:05.065Z,3.82
2022-11-14T06:18:33.069Z,3.79
2022-11-14T06:21:04.206Z,3.70
2022-11-14T06:23:30.776Z,3.68
2022-11-14T06:26:02.247Z,3.82
2022-11-14T06:28:29.848Z,3.77
2022-11-14T06:31:01.218Z,3.78
2022-11-14T06:33:29.547Z,3.86
2022-11-14T06:36:04.915Z,3.98
2022-11-14T06:38:32.932Z,3.75
2022-11-14T06:41:13.477Z,3.81
2022-11-14T06:43:45.357Z,3.79
2022-11-14T06:46:14.986Z,3.72
2022-11-14T06:48:43.193Z,3.77
2022-11-14T06:51:14.024Z,3.84
2022-11-14T06:53:44.917Z,3.88
2022-11-14T06:56:13.548Z,4.04
2022-11-14T06:58:44.469Z,4.19
2022-11-14T07:01:14.163Z,4.22
2022-11-14T07:03:44.126Z,4.13
2022-11-14T07:06:13.365Z,4.25
2022-11-14T07:08:40.253Z,4.29
2022-11-14T07:11:09.603Z,4.20
2022-11-14T07:13:37.832Z,4.02
2022-11-14T07:16:05.319Z,4.08
2022-11-14T07:18:33.914Z,4.16
2022-11-14T07:21:03.559Z,4.17
2022-11-14T07:23:32.124Z,4.02
2022-11-14T07:26:09.706Z,3.98
2022-11-14T07:28:37.985Z,3.76
2022-11-14T07:31:06.094Z,4.01
2022-11-14T07:33:33.712Z,4.11
2022-11-14T07:36:00.261Z,4.23
2022-11-14T07:38:27.327Z,4.42
2022-11-14T07:41:00.079Z,4.45
2022-11-14T07:43:27.539Z,4.47
2022-11-14T07:45:55.536Z,4.74
2022-11-14T07:48:23.824Z,4.84
2022-11-14T07:50:50.961Z,4.71
2022-11-14T07:53:18.095Z,4.92
2022-11-14T07:55:44.918Z,5.10
2022-11-14T07:58:14.563Z,5.43
2022-11-14T08:00:41.466Z,5.52
2022-11-14T08:03:10.818Z,5.71
2022-11-14T08:05:37.576Z,5.78
2022-11-14T08:08:04.705Z,5.94
2022-11-14T08:10:33.752Z,6.06
2022-11-14T08:13:30.142Z,6.35
2022-11-14T08:15:50.675Z,6.37
2022-11-14T08:18:17.645Z,6.48
2022-11-14T08:20:44.850Z,6.69
2022-11-14T08:23:12.479Z,6.75
2022-11-14T08:25:39.323Z,6.90
2022-11-14T08:28:08.291Z,7.21
2022-11-14T08:30:35.395Z,7.46
2022-11-14T08:33:03.866Z,7.66
2022-11-14T08:35:31.004Z,7.91
2022-11-14T08:37:57.624Z,8.12
2022-11-14T08:40:24.464Z,8.32
2022-11-14T08:42:51.392Z,8.48
2022-11-14T08:45:18.090Z,8.57
2022-11-14T08:47:51.001Z,8.72
2022-11-14T08:50:17.848Z,8.84
2022-11-14T08:52:50.313Z,8.94
2022-11-14T08:55:17.271Z,9.03
2022-11-14T08:57:49.046Z,9.17
2022-11-14T09:00:16.598Z,9.28
2022-11-14T09:02:43.264Z,9.38
2022-11-14T09:05:11.210Z,9.49
2022-11-14T09:07:38.075Z,9.63
2022-11-14T09:10:05.321Z,9.75
2022-11-14T09:12:35.260Z,9.86
2022-11-14T09:15:04.662Z,10.01
2022-11-14T09:17:31.275Z,10.10
2022-11-14T09:19:57.897Z,10.27
2022-11-14T09:22:24.675Z,10.43
2022-11-14T09:24:52.199Z,10.66
2022-11-14T09:27:19.126Z,10.83
2022-11-14T09:29:45.997Z,10.93
2022-11-14T09:32:12.549Z,11.14
2022-11-14T09:34:43.091Z,11.38
2022-11-14T09:37:10.142Z,11.49
2022-11-14T09:39:40.562Z,11.58
2022-11-14T09:42:07.391Z,11.82
2022-11-14T09:44:49.547Z,11.81
2022-11-14T09:47:27.551Z,12.01
2022-11-14T09:50:02.336Z,12.24
2022-11-14T09:52:46.454Z,12.27
2022-11-14T09:55:37.130Z,12.27
2022-11-14T09:58:05.382Z,12.24
2022-11-14T10:00:58.441Z,12.15
2022-11-14T10:04:07.026Z,12.12
2022-11-14T10:06:50.379Z,12.12
2022-11-14T10:09:17.090Z,12.17
2022-11-14T10:11:59.604Z,12.20
2022-11-14T10:14:38.533Z,12.23
2022-11-14T10:17:37.581Z,12.26
2022-11-14T10:20:18.669Z,12.22
2022-11-14T10:23:16.365Z,12.18
2022-11-14T10:25:54.808Z,12.29
2022-11-14T10:28:43.218Z,12.35
2022-11-14T10:31:38.188Z,12.36
2022-11-14T10:34:51.323Z,12.51
2022-11-14T10:37:37.759Z,12.64
2022-11-14T10:40:22.279Z,12.79
2022-11-14T10:43:00.617Z,12.86
2022-11-14T10:45:35.110Z,12.99
2022-11-14T10:48:09.219Z,13.15
2022-11-14T10:51:06.520Z,13.15
2022-11-14T10:53:57.590Z,13.14
2022-11-14T10:56:24.455Z,13.17
2022-11-14T10:58:51.230Z,13.24
2022-11-14T11:01:42.441Z,13.32
2022-11-14T11:04:13.632Z,13.26
2022-11-14T11:06:40.906Z,13.36
2022-11-14T11:09:34.362Z,13.40
2022-11-14T11:12:06.851Z,13.37
2022-11-14T11:14:34.762Z,13.36
2022-11-14T11:17:11.544Z,13.24
2022-11-14T11:19:42.616Z,13.31
2022-11-14T11:22:30.162Z,13.27
2022-11-14T11:24:57.005Z,13.30
2022-11-14T11:27:26.951Z,13.21
2022-11-14T11:30:05.181Z,13.24
2022-11-14T11:32:32.018Z,13.16
2022-11-14T11:35:01.537Z,13.24
2022-11-14T11:37:35.967Z,13.32
2022-11-14T11:40:06.343Z,13.40
2022-11-14T11:43:31.564Z,13.38
2022-11-14T11:45:31.700Z,13.47
2022-11-14T11:48:05.593Z,13.45
2022-11-14T11:50:35.068Z,13.44
2022-11-14T11:53:11.321Z,13.53
2022-11-14T11:55:44.119Z,13.58
2022-11-14T11:58:22.739Z,13.76
2022-11-14T12:00:55.210Z,14.05
2022-11-14T12:03:24.749Z,14.15
2022-11-14T12:06:20.757Z,14.32
2022-11-14T12:08:56.104Z,14.36
2022-11-14T12:11:26.405Z,14.45
2022-11-14T12:14:01.649Z,14.51
2022-11-14T12:16:59.257Z,14.64
2022-11-14T12:19:53.846Z,14.56
2022-11-14T12:22:42.824Z,14.58
2022-11-14T12:25:21.470Z,14.57
2022-11-14T12:28:09.019Z,14.53
2022-11-14T12:30:37.298Z,14.53
2022-11-14T12:33:35.888Z,14.60
2022-11-14T12:36:08.656Z,14.61
2022-11-14T12:38:46.685Z,14.62
2022-11-14T12:41:24.485Z,14.63
2022-11-14T12:43:53.324Z,14.67
2022-11-14T12:46:22.588Z,14.66
2022-11-14T12:48:49.023Z,14.73
2022-11-14T12:51:24.981Z,14.63
2022-11-14T12:53:52.840Z,14.58
2022-11-14T12:56:25.365Z,14.61
2022-11-14T12:59:10.234Z,14.65
2022-11-14T13:01:50.240Z,14.67
2022-11-14T13:04:16.804Z,14.72
2022-11-14T13:07:02.084Z,14.81
2022-11-14T13:09:36.090Z,14.82
2022-11-14T13:12:53.070Z,14.78
2022-11-14T13:15:38.031Z,14.81
2022-11-14T13:18:39.979Z,14.75
2022-11-14T13:21:45.891Z,14.76
2022-11-14T13:24:19.790Z,14.77
2022-11-14T13:26:52.671Z,14.89
2022-11-14T13:29:40.918Z,14.95
2022-11-14T13:32:12.159Z,14.96
2022-11-14T13:34:45.156Z,14.96
2022-11-14T13:37:35.036Z,14.95
2022-11-14T13:40:18.683Z,14.98
2022-11-14T13:43:03.763Z,14.97
2022-11-14T13:45:39.317Z,14.99
2022-11-14T13:48:47.770Z,14.93
2022-11-14T13:54:16.348Z,14.94
2022-11-14T13:57:00.502Z,14.90
2022-11-14T13:59:57.022Z,14.90
2022-11-14T14:02:26.574Z,14.95
2022-11-14T14:04:56.095Z,15.00
2022-11-14T14:07:37.961Z,14.99
2022-11-14T14:10:26.223Z,14.94
2022-11-14T14:13:31.830Z,14.91
2022-11-14T14:16:07.533Z,14.82
2022-11-14T14:18:54.503Z,15.07
2022-11-14T14:21:44.358Z,14.86
2022-11-14T14:24:17.130Z,14.69
2022-11-14T14:27:21.598Z,14.71
2022-11-14T14:30:02.614Z,14.76
2022-11-14T14:32:31.530Z,14.79
2022-11-14T14:35:00.493Z,14.68
2022-11-14T14:37:29.283Z,14.57
2022-11-14T14:40:01.077Z,14.60
2022-11-14T14:42:36.536Z,14.65
2022-11-14T14:45:04.533Z,14.44
2022-11-14T14:47:44.736Z,14.35
2022-11-14T14:50:27.115Z,14.30
2022-11-14T14:53:02.014Z,14.25
2022-11-14T14:55:32.450Z,14.14
2022-11-14T14:58:26.271Z,13.90
2022-11-14T15:01:01.626Z,13.66
2022-11-14T15:03:37.121Z,13.78
2022-11-14T15:06:22.349Z,13.62
2022-11-14T15:08:49.643Z,13.53
2022-11-14T15:11:16.506Z,13.56
2022-11-14T15:13:43.759Z,13.51
2022-11-14T15:16:14.071Z,13.32
2022-11-14T15:18:40.915Z,13.30
2022-11-14T15:21:10.656Z,13.30
2022-11-14T15:23:39.109Z,13.14
2022-11-14T15:26:18.022Z,12.94
2022-11-14T15:28:47.809Z,12.86
2022-11-14T15:31:22.595Z,12.84
2022-11-14T15:34:04.825Z,12.70
2022-11-14T15:36:31.674Z,12.58
2022-11-14T15:39:03.648Z,12.42
2022-11-14T15:41:32.233Z,12.41
2022-11-14T15:44:03.049Z,12.33
2022-11-14T15:46:40.711Z,12.39
2022-11-14T15:49:08.876Z,12.23
2022-11-14T15:51:50.752Z,12.18
2022-11-14T15:54:34.662Z,12.26
2022-11-14T15:57:15.087Z,12.18
2022-11-14T15:59:41.843Z,11.89
2022-11-14T16:02:18.271Z,11.68
2022-11-14T16:04:47.895Z,11.59
2022-11-14T16:07:18.134Z,11.54
2022-11-14T16:09:45.194Z,11.43
2022-11-14T16:12:12.019Z,11.16
2022-11-14T16:14:41.164Z,10.88
2022-11-14T16:17:14.109Z,10.99
2022-11-14T16:19:46.066Z,11.00
2022-11-14T16:22:15.942Z,10.86
2022-11-14T16:24:42.390Z,10.70
2022-11-14T16:27:11.719Z,10.87
2022-11-14T16:29:40.696Z,10.66
2022-11-14T16:32:10.396Z,10.57
2022-11-14T16:34:36.846Z,10.55
2022-11-14T16:37:03.529Z,10.59
2022-11-14T16:39:32.992Z,10.40
2022-11-14T16:42:02.450Z,10.30
2022-11-14T16:44:29.054Z,10.32
2022-11-14T16:46:55.537Z,10.30
2022-11-14T16:49:22.109Z,10.12
2022-11-14T16:51:50.682Z,10.12
2022-11-14T16:54:20.782Z,10.13
2022-11-14T16:56:48.028Z,9.95
2022-11-14T16:59:14.764Z,9.69
2022-11-14T17:01:41.612Z,9.72
2022-11-14T17:04:08.388Z,9.85
2022-11-14T17:06:37.287Z,9.68
2022-11-14T17:09:03.969Z,9.53
2022-11-14T17:11:33.078Z,9.30
2022-11-14T17:13:59.618Z,9.07
2022-11-14T17:16:26.167Z,9.07
2022-11-14T17:18:56.575Z,9.15
2022-11-14T17:21:24.255Z,9.27
2022-11-14T17:23:54.647Z,9.30
2022-11-14T17:26:21.413Z,9.09
2022-11-14T17:28:47.979Z,8.93
2022-11-14T17:31:15.917Z,8.92
2022-11-14T17:33:42.369Z,8.83
2022-11-14T17:36:10.400Z,8.67
2022-11-14T17:38:38.219Z,8.37
2022-11-14T17:41:08.158Z,8.21
2022-11-14T17:43:39.547Z,8.20
2022-11-14T17:46:12.634Z,8.33
2022-11-14T17:48:42.709Z,8.36
2022-11-14T17:51:12.801Z,8.35
2022-11-14T17:53:40.056Z,8.34
2022-11-14T17:56:09.913Z,8.10
2022-11-14T17:58:39.237Z,7.84
2022-11-14T18:01:14.472Z,7.87
2022-11-14T18:03:41.642Z,8.00
2022-11-14T18:06:10.464Z,8.06
2022-11-14T18:08:37.727Z,7.93
2022-11-14T18:11:06.107Z,7.71
2022-11-14T18:13:33.297Z,7.75
2022-11-14T18:16:19.947Z,7.68
2022-11-14T18:18:46.472Z,7.52
2022-11-14T18:21:18.965Z,7.77
2022-11-14T18:23:54.552Z,7.81
2022-11-14T18:26:27.133Z,7.75
2022-11-14T18:28:58.813Z,7.74
2022-11-14T18:31:28.138Z,7.69
2022-11-14T18:33:57.441Z,7.47
2022-11-14T18:36:24.262Z,7.26
2022-11-14T18:38:50.776Z,7.02
2022-11-14T18:41:19.384Z,6.98
2022-11-14T18:43:46.118Z,6.92
2022-11-14T18:46:21.714Z,7.15
2022-11-14T18:48:52.571Z,6.98
2022-11-14T18:51:22.037Z,6.84
2022-11-14T18:53:48.777Z,6.96
2022-11-14T18:56:18.029Z,6.85
2022-11-14T18:58:45.397Z,6.63
2022-11-14T19:01:13.964Z,6.62
2022-11-14T19:03:40.539Z,6.63
2022-11-14T19:06:08.806Z,6.50
2022-11-14T19:08:35.337Z,6.61
2022-11-14T19:11:05.370Z,6.49
2022-11-14T19:13:32.083Z,6.22
2022-11-14T19:16:05.590Z,6.28
2022-11-14T19:18:35.161Z,6.30
2022-11-14T19:21:06.084Z,6.22
2022-11-14T19:23:33.902Z,6.15
2022-11-14T19:26:01.727Z,6.19
2022-11-14T19:28:32.309Z,6.08
2022-11-14T19:31:05.967Z,6.28
2022-11-14T19:33:35.232Z,6.36
2022-11-14T19:36:06.792Z,6.26
2022-11-14T19:38:33.512Z,6.18
2022-11-14T19:41:09.334Z,6.08
2022-11-14T19:43:43.336Z,6.25
2022-11-14T19:46:10.548Z,6.21
2022-11-14T19:48:37.815Z,6.36
2022-11-14T19:51:09.698Z,6.13
2022-11-14T19:53:37.675Z,6.04
2022-11-14T19:56:09.769Z,6.02
2022-11-14T19:58:37.879Z,6.10
2022-11-14T20:01:06.786Z,6.15
2022-11-14T20:03:33.716Z,6.03
2022-11-14T20:06:00.641Z,5.71
2022-11-14T20:08:27.282Z,5.91
2022-11-14T20:11:04.922Z,6.00
2022-11-14T20:13:38.002Z,5.93
2022-11-14T20:16:12.631Z,5.94
2022-11-14T20:18:40.486Z,5.68
2022-11-14T20:21:10.667Z,5.94
2022-11-14T20:23:37.605Z,6.01
2022-11-14T20:26:10.967Z,5.98
2022-11-14T20:28:38.418Z,5.80
2022-11-14T20:31:07.416Z,5.66
2022-11-14T20:33:39.070Z,5.45
2022-11-14T20:36:11.507Z,5.62
2022-11-14T20:38:38.104Z,5.64
2022-11-14T20:41:05.333Z,5.71
2022-11-14T20:43:32.323Z,5.64
2022-11-14T20:46:06.130Z,5.84
2022-11-14T20:48:37.495Z,5.46
2022-11-14T20:51:10.460Z,5.44
2022-11-14T20:53:37.134Z,5.50
2022-11-14T20:56:06.698Z,5.41
2022-11-14T20:58:33.740Z,5.45
2022-11-14T21:01:00.347Z,5.46
2022-11-14T21:03:30.019Z,5.38
2022-11-14T21:06:00.171Z,5.51
2022-11-14T21:08:26.792Z,5.28
2022-11-14T21:11:02.033Z,5.26
2022-11-14T21:13:47.292Z,5.30
2022-11-14T21:16:19.120Z,5.27
2022-11-14T21:18:48.346Z,5.29
2022-11-14T21:21:19.821Z,5.31
2022-11-14T21:23:47.317Z,5.15
2022-11-14T21:26:13.695Z,5.18
2022-11-14T21:28:43.026Z,5.02
2022-11-14T21:31:18.546Z,5.25
2022-11-14T21:33:45.929Z,5.18
2022-11-14T21:36:43.095Z,5.17
2022-11-14T21:39:03.096Z,5.18
2022-11-14T21:41:31.046Z,5.13
2022-11-14T21:43:59.675Z,5.04
2022-11-14T21:46:27.164Z,5.13
2022-11-14T21:48:55.502Z,5.03
2022-11-14T21:51:24.514Z,5.00
2022-11-14T21:53:54.539Z,4.84
2022-11-14T21:56:22.520Z,4.68
2022-11-14T21:58:50.576Z,4.81
2022-11-14T22:01:40.416Z,4.93
2022-11-14T22:04:12.962Z,4.83
2022-11-14T22:06:41.380Z,4.72
2022-11-14T22:09:08.672Z,4.75
2022-11-14T22:11:37.963Z,4.61
2022-11-14T22:14:04.578Z,4.73
2022-11-14T22:16:31.569Z,4.87
2022-11-14T22:19:04.524Z,4.66
2022-11-14T22:21:31.635Z,4.66
2022-11-14T22:23:58.200Z,4.64
2022-11-14T22:26:24.604Z,4.66
2022-11-14T22:28:51.057Z,4.42
2022-11-14T22:31:22.960Z,4.17
2022-11-14T22:33:57.907Z,4.32
2022-11-14T22:36:26.319Z,4.39
2022-11-14T22:38:54.706Z,4.32
2022-11-14T22:41:30.690Z,4.27
2022-11-14T22:44:01.777Z,4.28
2022-11-14T22:46:28.999Z,4.38
2022-11-14T22:48:55.987Z,4.30
2022-11-14T22:51:26.893Z,4.33
2022-11-14T22:53:55.174Z,4.28
2022-11-14T22:56:24.331Z,4.31
2022-11-14T22:58:51.443Z,4.11
2022-11-14T23:01:20.886Z,4.09
2022-11-14T23:03:48.331Z,4.11
2022-11-14T23:06:17.644Z,4.05
2022-11-14T23:08:44.381Z,4.11
2022-11-14T23:11:14.418Z,3.97
2022-11-14T23:13:43.550Z,3.92
2022-11-14T23:16:18.657Z,4.18
2022-11-14T23:18:48.199Z,4.03
2022-11-14T23:21:20.028Z,4.08
2022-11-14T23:23:46.832Z,3.78
2022-11-14T23:26:20.172Z,3.82
2022-11-14T23:28:46.655Z,3.79
2022-11-14T23:31:19.440Z,4.03
2022-11-14T23:33:47.307Z,3.75
2022-11-14T23:36:16.486Z,3.86
2022-11-14T23:38:42.946Z,3.74
2022-11-14T23:41:16.239Z,3.67
2022-11-14T23:43:42.793Z,3.70
2022-11-14T23:46:11.766Z,3.67
2022-11-14T23:48:38.195Z,3.84
2022-11-14T23:51:04.721Z,3.87
2022-11-14T23:53:31.535Z,3.96
2022-11-14T23:56:01.963Z,3.75
2022-11-14T23:58:29.920Z,3.73
